createdAt,value
2019-04-21T00:01:16.518Z,12.10
2019-04-21T00:03:53.240Z,10.83
2019-04-21T00:06:45.295Z,10.90
2019-04-21T00:09:11.433Z,11.10
2019-04-21T00:11:43.353Z,11.20
2019-04-21T00:14:07.249Z,10.33
2019-04-21T00:16:36.863Z,11.67
2019-04-21T00:19:17.784Z,10.60
2019-04-21T00:21:51.151Z,11.37
2019-04-21T00:24:29.000Z,11.47
2019-04-21T00:27:05.700Z,11.03
2019-04-21T00:32:06.917Z,12.13
2019-04-21T00:34:21.882Z,10.93
2019-04-21T00:37:04.983Z,11.37
2019-04-21T00:42:14.334Z,11.90
2019-04-21T00:44:37.833Z,11.33
2019-04-21T00:47:08.427Z,11.17
2019-04-21T00:49:53.886Z,11.50
2019-04-21T00:52:48.854Z,11.27
2019-04-21T00:55:24.941Z,12.33
2019-04-21T00:57:46.860Z,11.23
2019-04-21T01:00:11.918Z,11.23
2019-04-21T01:02:49.953Z,11.43
2019-04-21T01:05:16.474Z,11.93
2019-04-21T01:07:46.963Z,12.87
2019-04-21T01:10:12.204Z,12.33
2019-04-21T01:12:48.996Z,12.30
2019-04-21T01:17:52.208Z,11.87
2019-04-21T01:20:16.033Z,11.37
2019-04-21T01:22:36.119Z,10.77
2019-04-21T01:25:15.925Z,10.60
2019-04-21T01:27:53.784Z,11.70
2019-04-21T01:30:29.642Z,11.57
2019-04-21T01:33:08.126Z,12.03
2019-04-21T01:35:35.228Z,11.20
2019-04-21T01:38:06.744Z,12.00
2019-04-21T01:40:41.006Z,12.07
2019-04-21T01:43:07.411Z,11.27
2019-04-21T01:45:44.790Z,11.13
2019-04-21T01:48:13.409Z,11.93
2019-04-21T01:50:47.013Z,12.63
2019-04-21T01:53:28.800Z,11.67
2019-04-21T01:55:54.986Z,12.07
2019-04-21T01:58:21.065Z,11.60
2019-04-21T02:00:56.792Z,12.37
2019-04-21T02:03:48.941Z,11.17
2019-04-21T02:06:13.753Z,11.50
2019-04-21T02:08:31.317Z,12.63
2019-04-21T02:11:13.884Z,11.80
2019-04-21T02:13:49.004Z,11.50
2019-04-21T02:16:11.279Z,11.20
2019-04-21T02:18:42.201Z,12.10
2019-04-21T02:21:04.152Z,11.67
2019-04-21T02:23:54.351Z,11.50
2019-04-21T02:26:23.140Z,12.70
2019-04-21T02:28:58.565Z,11.23
2019-04-21T02:34:04.490Z,11.73
2019-04-21T02:36:40.424Z,11.93
2019-04-21T02:39:23.170Z,12.57
2019-04-21T02:41:43.566Z,12.13
2019-04-21T02:44:12.363Z,12.33
2019-04-21T02:46:42.188Z,12.83
2019-04-21T02:49:22.983Z,12.77
2019-04-21T02:51:42.488Z,12.00
2019-04-21T02:56:58.946Z,12.23
2019-04-21T02:59:42.914Z,12.43
2019-04-21T03:02:04.520Z,12.80
2019-04-21T03:04:47.033Z,12.87
2019-04-21T03:07:41.342Z,13.03
2019-04-21T03:12:22.096Z,12.70
2019-04-21T03:15:07.968Z,12.13
2019-04-21T03:20:08.721Z,13.10
2019-04-21T03:22:42.211Z,12.20
2019-04-21T03:27:52.799Z,11.80
2019-04-21T03:37:52.997Z,12.60
2019-04-21T03:42:57.198Z,13.70
2019-04-21T03:47:59.078Z,13.33
2019-04-21T03:50:29.667Z,13.23
2019-04-21T04:06:03.636Z,11.83
2019-04-21T04:08:51.618Z,12.87
2019-04-21T04:11:23.080Z,13.50
2019-04-21T04:16:10.130Z,14.10
2019-04-21T04:21:20.608Z,13.80
2019-04-21T04:23:58.068Z,14.50
2019-04-21T04:26:22.153Z,13.37
2019-04-21T04:33:57.761Z,13.40
2019-04-21T04:36:40.489Z,14.03
2019-04-21T04:39:26.005Z,13.10
2019-04-21T04:42:16.133Z,12.77
2019-04-21T04:44:46.361Z,12.37
2019-04-21T04:49:49.848Z,12.57
2019-04-21T05:02:27.812Z,13.00
2019-04-21T05:04:55.197Z,13.53
2019-04-21T05:07:21.340Z,12.40
2019-04-21T05:09:52.391Z,11.77
2019-04-21T05:14:54.705Z,11.53
2019-04-21T05:17:30.607Z,13.30
2019-04-21T05:20:08.698Z,12.30
2019-04-21T05:22:30.961Z,12.80
2019-04-21T05:24:49.300Z,12.70
2019-04-21T05:27:25.328Z,13.03
2019-04-21T05:30:08.408Z,11.97
2019-04-21T05:32:45.247Z,12.90
2019-04-21T05:35:22.930Z,12.47
2019-04-21T05:38:02.005Z,12.47
2019-04-21T05:40:27.425Z,12.53
2019-04-21T05:43:02.268Z,11.13
2019-04-21T05:45:46.150Z,11.80
2019-04-21T05:48:17.138Z,11.33
2019-04-21T05:50:38.145Z,11.67
2019-04-21T05:53:20.879Z,12.10
2019-04-21T05:55:49.169Z,11.87
2019-04-21T05:58:12.074Z,11.77
2019-04-21T06:03:30.744Z,12.23
2019-04-21T06:08:31.324Z,10.93
2019-04-21T06:11:10.422Z,11.40
2019-04-21T06:13:45.293Z,11.27
2019-04-21T06:16:07.545Z,11.30
2019-04-21T06:18:48.860Z,11.53
2019-04-21T06:21:09.845Z,11.20
2019-04-21T06:23:41.215Z,12.10
2019-04-21T06:26:27.030Z,11.93
2019-04-21T06:28:46.758Z,11.50
2019-04-21T06:31:31.771Z,10.87
2019-04-21T06:41:31.544Z,10.87
2019-04-21T06:44:06.083Z,11.60
2019-04-21T06:46:37.450Z,10.93
2019-04-21T06:49:02.854Z,10.63
2019-04-21T06:51:49.793Z,12.10
2019-04-21T06:54:09.234Z,11.50
2019-04-21T06:56:43.851Z,11.40
2019-04-21T06:59:22.092Z,11.93
2019-04-21T07:01:54.936Z,12.40
2019-04-21T07:04:18.850Z,12.40
2019-04-21T07:06:52.106Z,11.80
2019-04-21T07:09:20.766Z,12.53
2019-04-21T07:11:44.402Z,11.57
2019-04-21T07:19:30.340Z,11.80
2019-04-21T07:21:51.017Z,11.97
2019-04-21T07:24:43.319Z,11.97
2019-04-21T07:27:00.243Z,12.30
2019-04-21T07:29:34.748Z,12.07
2019-04-21T07:34:36.356Z,12.50
2019-04-21T07:37:06.393Z,11.53
2019-04-21T07:39:34.853Z,11.13
2019-04-21T07:42:06.895Z,10.87
2019-04-21T07:44:32.983Z,12.17
2019-04-21T07:47:11.808Z,10.60
2019-04-21T07:49:50.233Z,11.20
2019-04-21T07:52:22.292Z,11.00
2019-04-21T07:55:11.350Z,11.43
2019-04-21T07:57:26.040Z,10.47
2019-04-21T08:00:13.254Z,11.00
2019-04-21T08:02:33.126Z,10.93
2019-04-21T08:05:09.986Z,10.73
2019-04-21T08:07:44.945Z,10.83
2019-04-21T08:10:03.222Z,10.73
2019-04-21T08:12:28.994Z,9.83
2019-04-21T08:15:18.161Z,10.83
2019-04-21T08:17:41.378Z,10.80
2019-04-21T08:20:09.242Z,11.57
2019-04-21T08:22:46.769Z,10.57
2019-04-21T08:25:18.224Z,10.53
2019-04-21T08:27:50.550Z,10.17
2019-04-21T08:30:22.750Z,10.60
2019-04-21T08:33:01.057Z,10.00
2019-04-21T08:35:59.006Z,10.07
2019-04-21T08:37:48.463Z,10.53
2019-04-21T08:40:29.112Z,9.70
2019-04-21T08:42:57.135Z,9.77
2019-04-21T08:45:28.218Z,10.13
2019-04-21T08:48:00.952Z,10.57
2019-04-21T08:50:30.998Z,9.03
2019-04-21T08:53:04.162Z,10.50
2019-04-21T08:55:49.293Z,9.53
2019-04-21T08:58:36.990Z,10.43
2019-04-21T09:01:23.978Z,10.47
2019-04-21T09:04:04.292Z,10.47
2019-04-21T09:06:51.207Z,9.27
2019-04-21T09:09:03.615Z,8.87
2019-04-21T09:11:28.405Z,9.80
2019-04-21T09:14:01.163Z,8.60
2019-04-21T09:16:30.740Z,9.10
2019-04-21T09:18:58.070Z,10.10
2019-04-21T09:21:42.303Z,8.95
2019-04-21T09:24:11.525Z,9.20
2019-04-21T09:26:41.227Z,9.47
2019-04-21T09:29:04.320Z,8.90
2019-04-21T09:31:32.218Z,8.47
2019-04-21T09:34:00.396Z,10.05
2019-04-21T09:36:35.283Z,9.48
2019-04-21T09:39:09.159Z,9.75
2019-04-21T09:41:36.412Z,7.70
2019-04-21T09:44:08.723Z,9.58
2019-04-21T09:46:46.571Z,8.55
2019-04-21T09:49:12.534Z,7.90
2019-04-21T09:51:39.967Z,8.60
2019-04-21T09:54:16.019Z,8.23
2019-04-21T09:56:50.023Z,8.63
2019-04-21T09:59:20.806Z,7.75
2019-04-21T10:01:55.006Z,8.05
2019-04-21T10:04:16.424Z,7.67
2019-04-21T10:06:47.557Z,9.08
2019-04-21T10:09:19.887Z,8.33
2019-04-21T10:11:50.494Z,8.05
2019-04-21T10:14:20.395Z,8.28
2019-04-21T10:16:57.243Z,8.93
2019-04-21T10:19:27.449Z,8.70
2019-04-21T10:21:59.526Z,9.23
2019-04-21T10:24:30.678Z,8.70
2019-04-21T10:27:03.588Z,8.98
2019-04-21T10:29:35.807Z,8.50
2019-04-21T10:32:05.865Z,7.87
2019-04-21T10:34:37.153Z,8.18
2019-04-21T10:37:11.114Z,7.65
2019-04-21T10:39:47.541Z,7.55
2019-04-21T10:42:19.497Z,7.67
2019-04-21T10:45:03.438Z,7.40
2019-04-21T11:00:28.077Z,6.75
2019-04-21T11:03:17.133Z,6.45
2019-04-21T11:05:50.451Z,7.45
2019-04-21T11:08:25.746Z,6.80
2019-04-21T11:10:51.981Z,6.25
2019-04-21T11:13:22.942Z,7.12
2019-04-21T11:15:53.009Z,6.47
2019-04-21T11:18:23.964Z,6.08
2019-04-21T11:20:54.918Z,6.00
2019-04-21T11:23:25.102Z,6.20
2019-04-21T11:25:55.873Z,5.62
2019-04-21T11:28:27.096Z,5.30
2019-04-21T11:30:57.257Z,4.97
2019-04-21T11:33:27.260Z,5.53
2019-04-21T11:35:57.426Z,5.10
2019-04-21T11:38:31.816Z,4.85
2019-04-21T11:41:00.582Z,5.42
2019-04-21T11:43:30.780Z,5.85
2019-04-21T11:46:00.726Z,6.12
2019-04-21T11:48:30.615Z,6.58
2019-04-21T11:51:01.336Z,5.95
2019-04-21T11:53:31.235Z,5.62
2019-04-21T11:56:01.007Z,5.37
2019-04-21T11:58:31.963Z,5.90
2019-04-21T12:01:03.578Z,5.17
2019-04-21T12:03:33.636Z,6.03
2019-04-21T12:06:03.752Z,6.05
2019-04-21T12:08:40.452Z,5.62
2019-04-21T12:11:05.385Z,6.37
2019-04-21T12:13:36.191Z,5.90
2019-04-21T12:16:07.222Z,5.58
2019-04-21T12:18:37.139Z,5.40
2019-04-21T12:21:07.482Z,4.92
2019-04-21T12:23:38.438Z,5.42
2019-04-21T12:26:09.373Z,5.08
2019-04-21T12:28:39.785Z,5.40
2019-04-21T12:31:14.128Z,5.40
2019-04-21T12:33:45.941Z,6.33
2019-04-21T12:36:15.989Z,5.28
2019-04-21T12:38:50.920Z,5.83
2019-04-21T12:41:18.273Z,6.08
2019-04-21T12:43:48.656Z,6.28
2019-04-21T12:46:18.545Z,5.62
2019-04-21T12:48:49.620Z,5.90
2019-04-21T12:51:19.794Z,5.90
2019-04-21T12:53:49.884Z,5.08
2019-04-21T12:56:20.649Z,5.60
2019-04-21T12:58:51.349Z,5.65
2019-04-21T13:01:21.217Z,5.62
2019-04-21T13:03:52.105Z,5.83
2019-04-21T13:06:23.423Z,5.47
2019-04-21T13:09:02.982Z,6.15
2019-04-21T13:11:25.871Z,4.95
2019-04-21T13:13:55.761Z,5.72
2019-04-21T13:16:25.537Z,5.35
2019-04-21T13:18:57.520Z,4.95
2019-04-21T13:21:27.873Z,5.37
2019-04-21T13:23:58.861Z,4.78
2019-04-21T13:26:38.666Z,4.47
2019-04-21T13:29:00.525Z,4.90
2019-04-21T13:31:30.482Z,8.68
2019-04-21T13:34:00.271Z,6.37
2019-04-21T13:36:30.047Z,5.03
2019-04-21T13:39:44.739Z,4.78
2019-04-21T13:41:57.125Z,4.45
2019-04-21T13:44:17.843Z,5.08
2019-04-21T13:46:49.187Z,5.08
2019-04-21T13:49:19.314Z,4.55
2019-04-21T13:51:51.966Z,4.95
2019-04-21T13:54:22.024Z,4.53
2019-04-21T13:56:52.409Z,4.20
2019-04-21T13:59:22.554Z,9.95
2019-04-21T14:01:53.881Z,4.62
2019-04-21T14:04:25.277Z,3.92
2019-04-21T14:06:56.487Z,4.45
2019-04-21T14:09:37.767Z,6.25
2019-04-21T14:11:59.154Z,5.03
2019-04-21T14:14:30.336Z,4.17
2019-04-21T14:17:03.906Z,4.00
2019-04-21T14:19:33.220Z,3.50
2019-04-21T14:22:05.310Z,3.80
2019-04-21T14:24:35.494Z,4.12
2019-04-21T14:27:05.982Z,3.77
2019-04-21T14:29:37.559Z,3.72
2019-04-21T14:32:08.394Z,3.98
2019-04-21T14:34:39.706Z,3.80
2019-04-21T14:37:10.865Z,3.67
2019-04-21T14:39:50.257Z,3.95
2019-04-21T14:42:12.330Z,3.55
2019-04-21T14:44:43.213Z,4.15
2019-04-21T14:47:31.580Z,3.20
2019-04-21T14:50:15.539Z,3.70
2019-04-21T14:52:48.558Z,3.55
2019-04-21T14:55:29.012Z,3.50
2019-04-21T14:57:59.077Z,3.58
2019-04-21T15:00:33.267Z,3.42
2019-04-21T15:03:03.709Z,3.83
2019-04-21T15:05:33.674Z,3.33
2019-04-21T15:08:03.477Z,3.45
2019-04-21T15:10:34.012Z,3.87
2019-04-21T15:13:05.762Z,4.05
2019-04-21T15:15:36.120Z,4.10
2019-04-21T15:18:06.062Z,3.80
2019-04-21T15:20:36.256Z,3.35
2019-04-21T15:23:06.337Z,3.67
2019-04-21T15:25:38.219Z,3.65
2019-04-21T15:28:09.536Z,3.58
2019-04-21T15:30:40.782Z,3.95
2019-04-21T15:33:10.736Z,3.37
2019-04-21T15:35:40.664Z,4.00
2019-04-21T15:38:11.856Z,3.55
2019-04-21T15:40:50.518Z,3.85
2019-04-21T15:43:14.675Z,3.58
2019-04-21T15:45:44.605Z,3.95
2019-04-21T15:48:14.431Z,4.10
2019-04-21T15:50:44.196Z,4.20
2019-04-21T15:53:19.359Z,4.55
2019-04-21T15:56:07.162Z,4.00
2019-04-21T15:58:56.942Z,4.12
2019-04-21T16:01:32.643Z,4.20
2019-04-21T16:04:04.052Z,4.95
2019-04-21T16:06:35.248Z,4.30
2019-04-21T16:09:15.017Z,4.05
2019-04-21T16:46:45.876Z,4.92
2019-04-21T16:49:15.888Z,4.67
2019-04-21T16:51:47.442Z,4.58
2019-04-21T16:54:28.187Z,5.37
2019-04-21T17:00:44.131Z,4.50
2019-04-21T17:03:16.580Z,4.15
2019-04-21T18:34:34.167Z,6.05
2019-04-21T18:37:16.837Z,6.15
2019-04-21T18:39:52.572Z,6.97
2019-04-21T18:42:46.377Z,6.33
2019-04-21T18:48:04.863Z,5.70
2019-04-21T18:50:47.817Z,6.35
2019-04-21T18:53:23.799Z,6.87
2019-04-21T18:55:48.247Z,7.37
2019-04-21T18:58:15.837Z,7.95
2019-04-21T19:00:48.603Z,7.00
2019-04-21T19:03:25.421Z,6.72
2019-04-21T19:05:54.457Z,6.92
2019-04-21T19:08:38.848Z,6.80
2019-04-21T19:11:14.974Z,6.42
2019-04-21T19:14:17.498Z,7.22
2019-04-21T19:16:42.838Z,6.78
2019-04-21T19:19:32.423Z,6.78
2019-04-21T19:21:28.435Z,6.87
2019-04-21T19:24:18.543Z,7.47
2019-04-21T19:26:46.568Z,7.58
2019-04-21T19:29:20.023Z,6.92
2019-04-21T19:31:46.321Z,7.92
2019-04-21T19:34:05.895Z,7.97
2019-04-21T19:36:29.076Z,7.80
2019-04-21T19:39:06.409Z,7.37
2019-04-21T19:41:43.148Z,7.50
2019-04-21T19:44:17.250Z,7.37
2019-04-21T19:46:48.839Z,7.75
2019-04-21T19:49:27.819Z,7.30
2019-04-21T19:51:46.249Z,7.67
2019-04-21T19:54:18.965Z,7.55
2019-04-21T19:56:39.156Z,7.80
2019-04-21T19:59:14.048Z,7.80
2019-04-21T20:01:41.380Z,8.90
2019-04-21T20:04:12.471Z,8.00
2019-04-21T20:06:54.942Z,8.25
2019-04-21T20:09:32.510Z,7.87
2019-04-21T20:11:59.206Z,8.45
2019-04-21T20:14:46.824Z,8.05
2019-04-21T20:17:06.589Z,7.55
2019-04-21T20:19:21.479Z,8.15
2019-04-21T20:21:53.486Z,8.43
2019-04-21T20:24:28.384Z,7.70
2019-04-21T20:27:03.562Z,8.93
2019-04-21T20:29:44.603Z,8.80
2019-04-21T20:32:24.564Z,9.15
2019-04-21T20:34:48.968Z,8.75
2019-04-21T20:37:21.274Z,10.10
2019-04-21T20:39:45.604Z,10.30
2019-04-21T20:42:21.526Z,9.68
2019-04-21T20:45:05.149Z,10.05
2019-04-21T20:47:22.248Z,9.53
2019-04-21T20:49:50.833Z,10.05
2019-04-21T20:52:30.886Z,9.60
2019-04-21T20:54:53.855Z,10.58
2019-04-21T20:57:30.061Z,10.63
2019-04-21T21:00:08.755Z,10.93
2019-04-21T21:02:43.612Z,11.43
2019-04-21T21:04:59.015Z,11.37
2019-04-21T21:07:45.911Z,11.38
2019-04-21T21:10:11.992Z,11.38
2019-04-21T21:12:50.222Z,10.73
2019-04-21T21:15:10.238Z,11.53
2019-04-21T21:17:52.622Z,10.82
2019-04-21T21:20:28.850Z,10.85
2019-04-21T21:22:49.572Z,11.90
2019-04-21T21:25:33.861Z,12.10
2019-04-21T21:27:51.087Z,11.67
2019-04-21T21:30:23.152Z,11.03
2019-04-21T21:33:05.665Z,12.65
2019-04-21T21:35:28.301Z,11.93
2019-04-21T21:38:06.721Z,12.13
2019-04-21T21:40:36.754Z,12.45
2019-04-21T21:42:55.341Z,12.40
2019-04-21T21:45:30.404Z,12.75
2019-04-21T21:48:14.043Z,12.93
2019-04-21T21:50:42.125Z,11.60
2019-04-21T21:53:07.750Z,12.97
2019-04-21T21:55:34.017Z,12.05
2019-04-21T21:58:05.146Z,12.30
2019-04-21T22:00:36.888Z,12.20
2019-04-21T22:03:18.860Z,13.40
2019-04-21T22:05:45.547Z,13.00
2019-04-21T22:08:12.345Z,11.93
2019-04-21T22:10:43.308Z,12.00
2019-04-21T22:13:18.030Z,10.17
2019-04-21T22:15:50.541Z,11.10
2019-04-21T22:18:37.835Z,11.47
2019-04-21T22:21:03.528Z,10.53
2019-04-21T22:23:30.513Z,10.50
2019-04-21T22:25:51.416Z,9.93
2019-04-21T22:28:22.122Z,9.53
2019-04-21T22:30:54.709Z,9.40
2019-04-21T22:33:25.779Z,9.60
2019-04-21T22:36:02.676Z,8.33
2019-04-21T22:38:40.819Z,8.27
2019-04-21T22:41:11.921Z,7.77
2019-04-21T22:43:36.444Z,7.03
2019-04-21T22:46:01.521Z,7.10
2019-04-21T22:48:32.248Z,7.17
2019-04-21T22:51:03.023Z,7.53
2019-04-21T22:53:40.204Z,7.03
2019-04-21T22:56:14.164Z,7.83
2019-04-21T22:58:42.422Z,7.60
2019-04-21T23:01:10.928Z,7.73
2019-04-21T23:03:50.137Z,7.70
2019-04-21T23:06:17.886Z,7.23
2019-04-21T23:08:45.728Z,7.23
2019-04-21T23:11:16.676Z,7.00
2019-04-21T23:13:55.316Z,6.87
2019-04-21T23:16:20.518Z,13.40
2019-04-21T23:19:08.133Z,7.33
2019-04-21T23:21:36.253Z,10.20
2019-04-21T23:24:08.722Z,7.80
2019-04-21T23:26:39.519Z,7.03
2019-04-21T23:29:14.002Z,7.33
2019-04-21T23:31:48.341Z,6.73
2019-04-21T23:34:00.021Z,7.50
2019-04-21T23:36:32.182Z,7.27
2019-04-21T23:39:01.553Z,6.53
2019-04-21T23:41:41.338Z,6.50
2019-04-21T23:44:08.583Z,6.30
2019-04-21T23:46:37.338Z,7.13
2019-04-21T23:49:21.441Z,6.93
2019-04-21T23:51:47.707Z,6.10
2019-04-21T23:54:13.353Z,7.73
2019-04-21T23:56:46.247Z,7.03
2019-04-21T23:59:16.516Z,8.07
